createdAt,value
2019-02-25T00:00:16.965Z,7.85
2019-02-25T00:01:16.988Z,7.86
2019-02-25T00:02:17.012Z,7.92
2019-02-25T00:03:17.038Z,7.83
2019-02-25T00:04:17.062Z,7.91
2019-02-25T00:05:17.101Z,7.85
2019-02-25T00:06:17.112Z,7.86
2019-02-25T00:07:17.548Z,7.88
2019-02-25T00:08:17.161Z,7.86
2019-02-25T00:09:17.190Z,7.75
2019-02-25T00:10:17.213Z,7.92
2019-02-25T00:11:17.238Z,7.82
2019-02-25T00:12:17.262Z,7.77
2019-02-25T00:13:17.295Z,7.71
2019-02-25T00:14:17.318Z,7.80
2019-02-25T00:15:17.342Z,7.78
2019-02-25T00:16:17.359Z,7.67
2019-02-25T00:17:17.386Z,7.73
2019-02-25T00:18:17.408Z,7.68
2019-02-25T00:19:17.437Z,7.68
2019-02-25T00:20:17.464Z,7.68
2019-02-25T00:21:17.490Z,7.68
2019-02-25T00:22:17.514Z,7.70
2019-02-25T00:23:17.532Z,7.64
2019-02-25T00:24:17.561Z,7.70
2019-02-25T00:25:17.588Z,7.67
2019-02-25T00:26:17.615Z,7.64
2019-02-25T00:27:17.632Z,7.68
2019-02-25T00:28:17.655Z,7.67
2019-02-25T00:29:17.693Z,7.64
2019-02-25T00:30:17.712Z,7.64
2019-02-25T00:31:17.731Z,7.63
2019-02-25T00:32:17.757Z,7.68
2019-02-25T00:33:17.778Z,7.59
2019-02-25T00:34:17.814Z,7.59
2019-02-25T00:35:17.827Z,7.58
2019-02-25T00:36:17.855Z,7.59
2019-02-25T00:37:17.890Z,7.56
2019-02-25T00:38:17.902Z,7.56
2019-02-25T00:39:17.929Z,7.54
2019-02-25T00:40:17.953Z,7.41
2019-02-25T00:41:17.979Z,7.56
2019-02-25T00:42:18.003Z,7.49
2019-02-25T00:43:18.028Z,7.49
2019-02-25T00:44:18.059Z,7.51
2019-02-25T00:45:18.080Z,7.49
2019-02-25T00:46:18.099Z,7.55
2019-02-25T00:47:18.123Z,7.47
2019-02-25T00:48:18.150Z,7.48
2019-02-25T00:49:18.175Z,7.40
2019-02-25T00:50:18.208Z,7.26
2019-02-25T00:51:18.225Z,7.33
2019-02-25T00:52:18.253Z,7.34
2019-02-25T00:53:18.279Z,7.27
2019-02-25T00:54:18.300Z,7.23
2019-02-25T00:55:18.323Z,7.22
2019-02-25T00:56:18.348Z,7.22
2019-02-25T00:57:18.368Z,7.18
2019-02-25T00:58:18.403Z,7.18
2019-02-25T00:59:18.421Z,7.21
2019-02-25T01:00:18.447Z,7.22
2019-02-25T01:01:18.476Z,7.26
2019-02-25T01:02:18.506Z,7.18
2019-02-25T01:03:18.517Z,7.16
2019-02-25T01:04:18.540Z,7.21
2019-02-25T01:05:18.566Z,7.12
2019-02-25T01:06:18.593Z,7.15
2019-02-25T01:07:18.615Z,7.05
2019-02-25T01:08:18.640Z,7.08
2019-02-25T01:09:18.666Z,7.11
2019-02-25T01:10:18.693Z,7.09
2019-02-25T01:11:18.715Z,7.00
2019-02-25T01:12:18.746Z,7.00
2019-02-25T01:13:18.764Z,7.01
2019-02-25T01:14:18.786Z,7.01
2019-02-25T01:15:18.814Z,6.98
2019-02-25T01:16:18.836Z,7.05
2019-02-25T01:17:18.862Z,7.01
2019-02-25T01:18:18.886Z,6.94
2019-02-25T01:19:18.909Z,6.95
2019-02-25T01:20:18.954Z,6.90
2019-02-25T01:21:18.960Z,6.91
2019-02-25T01:22:18.987Z,6.98
2019-02-25T01:23:19.007Z,6.97
2019-02-25T01:24:19.048Z,7.04
2019-02-25T01:25:19.073Z,6.94
2019-02-25T01:26:19.086Z,6.93
2019-02-25T01:27:19.107Z,6.98
2019-02-25T01:28:19.132Z,6.85
2019-02-25T01:29:19.158Z,6.91
2019-02-25T01:30:19.180Z,6.83
2019-02-25T01:31:19.204Z,6.83
2019-02-25T01:32:19.228Z,6.85
2019-02-25T01:33:19.251Z,6.91
2019-02-25T01:34:19.281Z,6.94
2019-02-25T01:35:19.300Z,6.91
2019-02-25T01:36:19.327Z,6.94
2019-02-25T01:37:19.350Z,6.93
2019-02-25T01:38:19.372Z,6.95
2019-02-25T01:39:19.396Z,6.97
2019-02-25T01:40:19.428Z,6.90
2019-02-25T01:41:19.448Z,6.91
2019-02-25T01:42:19.472Z,6.94
2019-02-25T01:43:19.501Z,6.82
2019-02-25T01:44:19.522Z,6.82
2019-02-25T01:45:19.543Z,6.97
2019-02-25T01:46:19.566Z,6.91
2019-02-25T01:47:19.598Z,6.88
2019-02-25T01:48:19.616Z,6.93
2019-02-25T01:49:19.642Z,6.91
2019-02-25T01:50:19.664Z,6.94
2019-02-25T01:51:19.713Z,6.94
2019-02-25T01:52:19.713Z,6.91
2019-02-25T01:53:19.744Z,6.86
2019-02-25T01:54:19.760Z,6.86
2019-02-25T01:55:19.786Z,6.70
2019-02-25T01:56:19.816Z,6.73
2019-02-25T01:57:19.838Z,6.67
2019-02-25T01:58:19.858Z,6.73
2019-02-25T01:59:19.885Z,6.78
2019-02-25T02:00:19.908Z,6.72
2019-02-25T02:01:19.940Z,6.73
2019-02-25T02:02:19.962Z,6.75
2019-02-25T02:03:19.994Z,6.79
2019-02-25T02:04:20.006Z,6.73
2019-02-25T02:05:20.029Z,6.75
2019-02-25T02:06:20.056Z,6.68
2019-02-25T02:07:20.078Z,6.75
2019-02-25T02:08:20.105Z,6.73
2019-02-25T02:09:20.131Z,6.73
2019-02-25T02:10:20.157Z,6.83
2019-02-25T02:11:20.173Z,6.80
2019-02-25T02:12:20.201Z,6.70
2019-02-25T02:13:20.231Z,6.82
2019-02-25T02:14:20.247Z,6.75
2019-02-25T02:15:20.274Z,6.75
2019-02-25T02:16:20.313Z,6.58
2019-02-25T02:17:20.320Z,6.54
2019-02-25T02:18:20.345Z,6.42
2019-02-25T02:19:20.370Z,6.49
2019-02-25T02:20:20.396Z,6.54
2019-02-25T02:21:20.416Z,6.54
2019-02-25T02:22:20.442Z,6.62
2019-02-25T02:23:20.478Z,6.57
2019-02-25T02:24:20.497Z,6.54
2019-02-25T02:25:20.517Z,6.49
2019-02-25T02:26:21.169Z,6.54
2019-02-25T02:27:20.563Z,6.44
2019-02-25T02:28:20.587Z,6.47
2019-02-25T02:29:20.616Z,6.52
2019-02-25T02:30:20.671Z,6.47
2019-02-25T02:31:20.660Z,6.54
2019-02-25T02:32:20.685Z,6.46
2019-02-25T02:33:20.724Z,6.46
2019-02-25T02:34:20.733Z,6.51
2019-02-25T02:35:20.756Z,6.46
2019-02-25T02:36:20.785Z,6.60
2019-02-25T02:37:20.804Z,6.52
2019-02-25T02:38:20.841Z,6.46
2019-02-25T02:39:20.850Z,6.44
2019-02-25T02:40:20.879Z,6.47
2019-02-25T02:41:20.904Z,6.47
2019-02-25T02:42:20.953Z,6.36
2019-02-25T02:43:20.961Z,6.40
2019-02-25T02:44:20.970Z,6.42
2019-02-25T02:45:20.996Z,6.39
2019-02-25T02:46:21.021Z,6.37
2019-02-25T02:47:21.042Z,6.43
2019-02-25T02:48:21.067Z,6.43
2019-02-25T02:49:21.090Z,6.51
2019-02-25T02:50:21.118Z,6.42
2019-02-25T02:51:21.146Z,6.43
2019-02-25T02:52:21.172Z,6.40
2019-02-25T02:53:21.193Z,6.40
2019-02-25T02:54:21.222Z,6.37
2019-02-25T02:55:21.238Z,6.40
2019-02-25T02:56:21.262Z,6.34
2019-02-25T02:57:21.285Z,6.29
2019-02-25T02:58:21.309Z,6.33
2019-02-25T02:59:21.339Z,6.36
2019-02-25T03:00:21.363Z,6.31
2019-02-25T03:01:21.381Z,6.25
2019-02-25T03:02:21.406Z,6.24
2019-02-25T03:03:21.427Z,6.21
2019-02-25T03:04:21.455Z,6.20
2019-02-25T03:05:21.491Z,6.18
2019-02-25T03:06:21.501Z,6.13
2019-02-25T03:07:21.527Z,6.13
2019-02-25T03:08:21.561Z,6.14
2019-02-25T03:09:21.574Z,6.09
2019-02-25T03:10:21.598Z,6.13
2019-02-25T03:11:21.632Z,6.15
2019-02-25T03:12:21.651Z,6.14
2019-02-25T03:13:21.672Z,6.13
2019-02-25T03:14:21.699Z,6.07
2019-02-25T03:15:21.737Z,6.06
2019-02-25T03:16:21.755Z,6.10
2019-02-25T03:17:21.763Z,6.02
2019-02-25T03:18:21.793Z,6.05
2019-02-25T03:19:21.814Z,6.05
2019-02-25T03:20:22.437Z,6.03
2019-02-25T03:21:21.864Z,6.09
2019-02-25T03:22:21.885Z,6.02
2019-02-25T03:23:21.912Z,5.98
2019-02-25T03:24:21.936Z,5.96
2019-02-25T03:25:21.955Z,5.96
2019-02-25T03:26:21.981Z,5.88
2019-02-25T03:27:22.013Z,6.02
2019-02-25T03:28:22.028Z,5.99
2019-02-25T03:29:22.052Z,6.02
2019-02-25T03:30:22.116Z,5.99
2019-02-25T03:31:22.105Z,6.05
2019-02-25T03:32:22.134Z,6.03
2019-02-25T03:33:22.171Z,6.00
2019-02-25T03:34:22.179Z,5.96
2019-02-25T03:35:22.199Z,5.99
2019-02-25T03:36:22.222Z,5.92
2019-02-25T03:37:22.246Z,5.88
2019-02-25T03:38:22.269Z,5.99
2019-02-25T03:39:22.299Z,5.99
2019-02-25T03:40:22.349Z,5.89
2019-02-25T03:41:22.347Z,5.85
2019-02-25T03:42:22.365Z,5.84
2019-02-25T03:43:22.388Z,5.77
2019-02-25T03:44:22.412Z,5.77
2019-02-25T03:45:22.439Z,5.77
2019-02-25T03:46:22.469Z,5.75
2019-02-25T03:47:22.488Z,5.72
2019-02-25T03:48:22.513Z,5.67
2019-02-25T03:49:22.535Z,5.73
2019-02-25T03:50:22.570Z,5.62
2019-02-25T03:51:22.580Z,5.70
2019-02-25T03:52:22.608Z,5.59
2019-02-25T03:53:22.630Z,5.63
2019-02-25T03:54:22.677Z,5.64
2019-02-25T03:55:22.681Z,5.63
2019-02-25T03:56:22.702Z,5.57
2019-02-25T03:57:22.725Z,5.62
2019-02-25T03:58:22.756Z,5.63
2019-02-25T03:59:22.785Z,5.54
2019-02-25T04:00:22.801Z,5.63
2019-02-25T04:01:22.820Z,5.51
2019-02-25T04:02:22.848Z,5.51
2019-02-25T04:03:22.868Z,5.55
2019-02-25T04:04:22.913Z,5.54
2019-02-25T04:05:22.916Z,5.51
2019-02-25T04:06:22.944Z,5.54
2019-02-25T04:07:22.965Z,5.55
2019-02-25T04:08:22.992Z,5.57
2019-02-25T04:09:23.012Z,5.46
2019-02-25T04:10:23.048Z,5.42
2019-02-25T04:11:23.065Z,5.49
2019-02-25T04:12:23.093Z,5.42
2019-02-25T04:13:23.110Z,5.44
2019-02-25T04:14:23.148Z,5.37
2019-02-25T04:15:23.155Z,5.44
2019-02-25T04:16:23.185Z,5.42
2019-02-25T04:17:23.211Z,5.44
2019-02-25T04:18:23.308Z,5.48
2019-02-25T04:19:23.252Z,5.41
2019-02-25T04:20:23.307Z,5.44
2019-02-25T04:21:23.319Z,5.45
2019-02-25T04:22:23.327Z,5.41
2019-02-25T04:23:23.349Z,5.44
2019-02-25T04:24:23.373Z,5.39
2019-02-25T04:25:23.392Z,5.34
2019-02-25T04:26:23.418Z,5.37
2019-02-25T04:27:23.444Z,5.34
2019-02-25T04:28:23.468Z,5.37
2019-02-25T04:29:23.506Z,5.33
2019-02-25T04:30:23.524Z,5.31
2019-02-25T04:31:23.539Z,5.26
2019-02-25T04:32:23.566Z,5.30
2019-02-25T04:33:23.588Z,5.16
2019-02-25T04:34:23.609Z,5.33
2019-02-25T04:35:23.636Z,5.28
2019-02-25T04:36:23.655Z,5.27
2019-02-25T04:37:23.680Z,5.30
2019-02-25T04:38:23.704Z,5.31
2019-02-25T04:39:23.753Z,5.24
2019-02-25T04:40:23.968Z,5.27
2019-02-25T04:41:23.775Z,5.21
2019-02-25T04:42:23.797Z,5.23
2019-02-25T04:43:27.654Z,5.13
2019-02-25T04:44:23.843Z,5.08
2019-02-25T04:45:23.866Z,5.02
2019-02-25T04:46:26.515Z,5.05
2019-02-25T04:47:23.924Z,5.00
2019-02-25T04:48:23.938Z,5.00
2019-02-25T04:49:23.961Z,4.95
2019-02-25T04:50:23.985Z,4.95
2019-02-25T04:51:24.007Z,5.08
2019-02-25T04:52:24.039Z,5.03
2019-02-25T04:53:24.063Z,5.02
2019-02-25T04:54:24.077Z,4.97
2019-02-25T04:55:24.104Z,5.00
2019-02-25T04:56:25.358Z,5.02
2019-02-25T04:57:24.156Z,4.98
2019-02-25T04:58:24.177Z,4.90
2019-02-25T04:59:24.196Z,4.95
2019-02-25T05:00:24.227Z,5.03
2019-02-25T05:01:24.249Z,5.12
2019-02-25T05:02:24.272Z,5.08
2019-02-25T05:03:24.295Z,5.00
2019-02-25T05:04:24.318Z,5.08
2019-02-25T05:05:24.338Z,5.06
2019-02-25T05:06:24.369Z,5.00
2019-02-25T05:07:24.385Z,5.03
2019-02-25T05:08:24.812Z,4.95
2019-02-25T05:09:24.437Z,4.97
2019-02-25T05:10:24.456Z,5.02
2019-02-25T05:11:25.766Z,4.94
2019-02-25T05:12:24.503Z,4.92
2019-02-25T05:13:24.524Z,4.92
2019-02-25T05:14:24.553Z,4.88
2019-02-25T05:15:24.575Z,4.95
2019-02-25T05:16:24.595Z,4.92
2019-02-25T05:17:24.616Z,4.87
2019-02-25T05:18:24.648Z,4.88
2019-02-25T05:19:24.668Z,4.90
2019-02-25T05:20:24.690Z,4.85
2019-02-25T05:21:24.709Z,4.94
2019-02-25T05:22:24.736Z,4.85
2019-02-25T05:23:24.756Z,4.69
2019-02-25T05:24:24.795Z,4.75
2019-02-25T05:25:24.806Z,4.66
2019-02-25T05:26:24.836Z,4.69
2019-02-25T05:27:24.851Z,4.69
2019-02-25T05:28:24.877Z,4.65
2019-02-25T05:29:24.902Z,4.72
2019-02-25T05:30:24.928Z,4.56
2019-02-25T05:31:24.949Z,4.61
2019-02-25T05:32:24.978Z,4.60
2019-02-25T05:33:25.001Z,4.69
2019-02-25T05:34:25.064Z,4.66
2019-02-25T05:35:25.043Z,4.72
2019-02-25T05:36:25.062Z,4.64
2019-02-25T05:37:25.091Z,4.58
2019-02-25T05:38:25.114Z,4.57
2019-02-25T05:39:25.165Z,4.57
2019-02-25T05:40:25.180Z,4.53
2019-02-25T05:41:25.182Z,4.54
2019-02-25T05:42:25.215Z,4.47
2019-02-25T05:43:25.236Z,4.46
2019-02-25T05:44:25.257Z,4.47
2019-02-25T05:45:25.278Z,4.50
2019-02-25T05:46:25.298Z,4.46
2019-02-25T05:47:25.322Z,4.39
2019-02-25T05:48:25.347Z,4.35
2019-02-25T05:49:25.982Z,4.40
2019-02-25T05:50:25.393Z,4.38
2019-02-25T05:51:25.420Z,4.44
2019-02-25T05:52:25.442Z,4.40
2019-02-25T05:53:25.469Z,4.46
2019-02-25T05:54:25.503Z,4.46
2019-02-25T05:55:25.509Z,4.36
2019-02-25T05:56:25.535Z,4.44
2019-02-25T05:57:25.559Z,4.36
2019-02-25T05:58:26.802Z,4.26
2019-02-25T05:59:25.604Z,4.17
2019-02-25T06:00:25.623Z,4.24
2019-02-25T06:01:25.650Z,4.21
2019-02-25T06:02:25.677Z,4.24
2019-02-25T06:03:25.699Z,4.30
2019-02-25T06:04:25.718Z,4.24
2019-02-25T06:05:25.761Z,4.33
2019-02-25T06:06:25.963Z,4.26
2019-02-25T06:07:25.789Z,4.22
2019-02-25T06:08:25.812Z,4.26
2019-02-25T06:09:25.833Z,4.28
2019-02-25T06:10:25.857Z,4.22
2019-02-25T06:11:25.881Z,4.21
2019-02-25T06:12:25.904Z,4.24
2019-02-25T06:13:25.927Z,4.26
2019-02-25T06:14:25.961Z,4.24
2019-02-25T06:15:25.971Z,4.30
2019-02-25T06:16:26.003Z,4.29
2019-02-25T06:17:26.020Z,4.28
2019-02-25T06:18:26.043Z,4.32
2019-02-25T06:19:26.069Z,4.28
2019-02-25T06:20:26.087Z,4.28
2019-02-25T06:21:26.112Z,4.35
2019-02-25T06:22:26.136Z,4.40
2019-02-25T06:23:26.156Z,4.47
2019-02-25T06:24:26.186Z,4.40
2019-02-25T06:25:26.203Z,4.56
2019-02-25T06:26:26.225Z,4.44
2019-02-25T06:27:30.683Z,4.46
2019-02-25T06:28:26.279Z,4.51
2019-02-25T06:29:26.292Z,4.51
2019-02-25T06:30:26.316Z,4.51
2019-02-25T06:31:26.344Z,4.54
2019-02-25T06:32:26.372Z,4.54
2019-02-25T06:33:26.387Z,4.51
2019-02-25T06:34:26.418Z,4.53
2019-02-25T06:35:26.436Z,4.58
2019-02-25T06:36:26.462Z,4.53
2019-02-25T06:37:26.479Z,4.56
2019-02-25T06:38:26.508Z,4.57
2019-02-25T06:39:26.528Z,4.50
2019-02-25T06:40:26.551Z,4.51
2019-02-25T06:41:26.574Z,4.56
2019-02-25T06:42:26.598Z,4.58
2019-02-25T06:43:26.628Z,4.61
2019-02-25T06:44:26.641Z,4.60
2019-02-25T06:45:26.663Z,4.57
2019-02-25T06:46:26.689Z,4.69
2019-02-25T06:47:26.713Z,4.72
2019-02-25T06:48:26.737Z,4.69
2019-02-25T06:49:26.759Z,4.71
2019-02-25T06:50:26.823Z,4.88
2019-02-25T06:51:26.806Z,4.78
2019-02-25T06:52:26.829Z,4.85
2019-02-25T06:53:26.855Z,4.78
2019-02-25T06:54:26.874Z,4.91
2019-02-25T06:55:26.941Z,4.78
2019-02-25T06:56:26.919Z,4.79
2019-02-25T06:57:26.944Z,4.71
2019-02-25T06:58:26.976Z,4.76
2019-02-25T06:59:26.995Z,4.71
2019-02-25T07:00:27.013Z,4.78
2019-02-25T07:01:27.037Z,4.68
2019-02-25T07:02:27.060Z,4.83
2019-02-25T07:03:27.083Z,4.87
2019-02-25T07:04:27.107Z,4.88
2019-02-25T07:05:27.130Z,4.90
2019-02-25T07:06:27.153Z,4.94
2019-02-25T07:07:27.180Z,4.90
2019-02-25T07:08:27.203Z,4.95
2019-02-25T07:09:27.224Z,5.03
2019-02-25T07:10:27.247Z,4.97
2019-02-25T07:11:27.275Z,5.06
2019-02-25T07:12:27.290Z,5.10
2019-02-25T07:13:27.316Z,5.28
2019-02-25T07:14:27.340Z,5.42
2019-02-25T07:15:27.364Z,5.44
2019-02-25T07:16:27.388Z,5.59
2019-02-25T07:17:28.018Z,5.63
2019-02-25T07:18:27.434Z,6.00
2019-02-25T07:19:27.465Z,6.03
2019-02-25T07:20:27.779Z,6.17
2019-02-25T07:21:27.505Z,6.39
2019-02-25T07:22:27.526Z,6.40
2019-02-25T07:23:27.950Z,6.43
2019-02-25T07:24:27.572Z,6.44
2019-02-25T07:25:27.601Z,6.40
2019-02-25T07:26:27.691Z,6.39
2019-02-25T07:27:27.701Z,6.39
2019-02-25T07:28:27.672Z,6.42
2019-02-25T07:29:27.689Z,6.60
2019-02-25T07:30:27.715Z,6.61
2019-02-25T07:31:27.877Z,6.42
2019-02-25T07:32:27.763Z,6.40
2019-02-25T07:33:27.795Z,6.40
2019-02-25T07:34:27.810Z,6.36
2019-02-25T07:35:27.841Z,6.25
2019-02-25T07:36:27.856Z,6.28
2019-02-25T07:37:27.879Z,6.07
2019-02-25T07:38:27.905Z,6.18
2019-02-25T07:39:27.933Z,6.10
2019-02-25T07:40:27.957Z,6.13
2019-02-25T07:41:27.975Z,6.13
2019-02-25T07:42:28.000Z,6.05
2019-02-25T07:43:28.023Z,5.99
2019-02-25T07:44:28.049Z,5.96
2019-02-25T07:45:28.068Z,6.02
2019-02-25T07:46:28.093Z,5.98
2019-02-25T07:47:28.118Z,6.02
2019-02-25T07:48:28.142Z,6.06
2019-02-25T07:49:28.169Z,6.10
2019-02-25T07:50:28.190Z,6.14
2019-02-25T07:51:28.216Z,6.09
2019-02-25T07:52:28.237Z,6.07
2019-02-25T07:53:28.258Z,6.26
2019-02-25T07:54:28.282Z,6.31
2019-02-25T07:55:28.315Z,6.24
2019-02-25T07:56:28.338Z,6.24
2019-02-25T07:57:28.360Z,6.26
2019-02-25T07:58:28.930Z,6.14
2019-02-25T07:59:28.407Z,6.25
2019-02-25T08:00:28.426Z,6.21
2019-02-25T08:01:28.902Z,6.33
2019-02-25T08:02:28.473Z,6.15
2019-02-25T08:03:28.499Z,6.24
2019-02-25T08:04:28.974Z,6.25
2019-02-25T08:05:28.545Z,6.29
2019-02-25T08:06:28.572Z,6.33
2019-02-25T08:07:28.601Z,6.37
2019-02-25T08:08:28.619Z,6.29
2019-02-25T08:09:28.991Z,6.34
2019-02-25T08:10:28.715Z,6.46
2019-02-25T08:11:28.694Z,6.42
2019-02-25T08:12:28.966Z,6.47
2019-02-25T08:13:28.736Z,6.57
2019-02-25T08:14:28.762Z,6.54
2019-02-25T08:15:28.934Z,6.58
2019-02-25T08:16:28.818Z,6.61
2019-02-25T08:17:28.835Z,6.78
2019-02-25T08:18:28.858Z,6.75
2019-02-25T08:19:28.892Z,6.76
2019-02-25T08:20:28.904Z,6.88
2019-02-25T08:21:28.929Z,6.85
2019-02-25T08:22:28.954Z,6.90
2019-02-25T08:23:28.986Z,7.09
2019-02-25T08:24:30.862Z,6.93
2019-02-25T08:25:29.024Z,7.00
2019-02-25T08:26:29.051Z,7.01
2019-02-25T08:27:29.075Z,7.12
2019-02-25T08:28:29.104Z,7.13
2019-02-25T08:29:29.126Z,7.19
2019-02-25T08:30:29.201Z,7.16
2019-02-25T08:31:29.174Z,7.30
2019-02-25T08:32:29.196Z,7.36
2019-02-25T08:33:29.220Z,7.30
2019-02-25T08:34:29.245Z,7.45
2019-02-25T08:35:29.270Z,7.48
2019-02-25T08:36:29.291Z,7.67
2019-02-25T08:37:29.317Z,7.67
2019-02-25T08:38:29.348Z,7.75
2019-02-25T08:39:29.368Z,7.85
2019-02-25T08:40:29.398Z,7.86
2019-02-25T08:41:29.413Z,8.03
2019-02-25T08:42:31.041Z,7.95
2019-02-25T08:43:29.475Z,8.03
2019-02-25T08:44:29.490Z,8.14
2019-02-25T08:45:29.511Z,8.25
2019-02-25T08:46:29.535Z,8.25
2019-02-25T08:47:29.560Z,8.31
2019-02-25T08:48:29.587Z,8.39
2019-02-25T08:49:29.609Z,8.46
2019-02-25T08:50:29.634Z,8.49
2019-02-25T08:51:29.665Z,8.62
2019-02-25T08:52:29.690Z,8.60
2019-02-25T08:53:29.959Z,8.62
2019-02-25T08:54:29.733Z,8.68
2019-02-25T08:55:29.761Z,8.68
2019-02-25T08:56:29.785Z,8.79
2019-02-25T08:57:29.810Z,8.89
2019-02-25T08:58:29.831Z,9.64
2019-02-25T08:59:29.857Z,10.92
2019-02-25T09:00:29.887Z,12.10
2019-02-25T09:01:29.907Z,13.16
2019-02-25T09:02:29.935Z,14.16
2019-02-25T09:03:29.960Z,14.97
2019-02-25T09:04:29.986Z,15.65
2019-02-25T09:05:30.009Z,16.22
2019-02-25T09:06:30.037Z,16.69
2019-02-25T09:07:30.066Z,17.05
2019-02-25T09:08:30.091Z,17.02
2019-02-25T09:09:30.119Z,16.82
2019-02-25T09:10:30.149Z,16.88
2019-02-25T09:11:30.179Z,16.94
2019-02-25T09:12:30.205Z,16.91
2019-02-25T09:13:30.236Z,17.09
2019-02-25T09:14:33.287Z,17.65
2019-02-25T09:15:32.426Z,17.87
2019-02-25T09:16:30.321Z,17.94
2019-02-25T09:17:30.698Z,18.13
2019-02-25T09:18:30.737Z,18.39
2019-02-25T09:19:30.408Z,18.53
2019-02-25T09:20:30.690Z,18.61
2019-02-25T09:21:32.128Z,18.75
2019-02-25T09:22:30.503Z,18.51
2019-02-25T09:23:30.533Z,18.51
2019-02-25T09:25:48.207Z,19.13
2019-02-25T09:27:35.805Z,19.56
2019-02-25T09:28:35.840Z,19.72
2019-02-25T09:29:35.870Z,20.07
2019-02-25T09:30:35.904Z,20.07
2019-02-25T09:31:35.942Z,20.07
2019-02-25T09:32:35.980Z,20.32
2019-02-25T09:33:36.005Z,20.25
2019-02-25T09:35:18.594Z,20.12
2019-02-25T09:36:18.627Z,20.30
2019-02-25T09:37:18.663Z,20.25
2019-02-25T09:38:18.699Z,20.29
2019-02-25T09:39:18.735Z,20.19
2019-02-25T09:40:18.770Z,20.26
2019-02-25T09:41:18.803Z,20.07
2019-02-25T09:42:18.840Z,20.30
2019-02-25T09:43:18.873Z,20.40
2019-02-25T09:46:44.808Z,20.97
2019-02-25T09:47:44.845Z,21.12
2019-02-25T09:48:44.886Z,21.13
2019-02-25T09:49:44.917Z,21.28
2019-02-25T09:50:44.955Z,21.67
2019-02-25T09:51:44.992Z,21.38
2019-02-25T09:52:45.028Z,21.09
2019-02-25T09:53:45.064Z,20.94
2019-02-25T09:54:45.099Z,20.98
2019-02-25T09:55:45.143Z,20.81
2019-02-25T09:56:45.173Z,21.16
2019-02-25T09:57:45.210Z,21.13
2019-02-25T09:58:45.254Z,21.25
2019-02-25T09:59:45.287Z,21.52
2019-02-25T10:00:46.170Z,21.46
2019-02-25T10:01:45.359Z,21.64
2019-02-25T10:02:45.397Z,21.68
2019-02-25T10:03:45.436Z,21.59
2019-02-25T10:04:45.474Z,21.80
2019-02-25T10:05:46.323Z,21.74
2019-02-25T10:06:49.181Z,21.86
2019-02-25T10:07:45.583Z,22.07
2019-02-25T10:08:46.650Z,22.45
2019-02-25T10:09:45.654Z,22.42
2019-02-25T10:10:45.700Z,22.55
2019-02-25T10:11:45.738Z,22.38
2019-02-25T10:12:45.778Z,22.39
2019-02-25T10:13:45.806Z,22.52
2019-02-25T10:14:45.845Z,22.07
2019-02-25T10:15:45.884Z,22.20
2019-02-25T10:16:45.920Z,22.34
2019-02-25T10:17:45.956Z,22.54
2019-02-25T10:18:45.999Z,22.42
2019-02-25T10:19:46.036Z,22.27
2019-02-25T10:20:46.080Z,22.09
2019-02-25T10:21:46.118Z,22.14
2019-02-25T10:22:46.148Z,22.11
2019-02-25T10:23:46.185Z,21.86
2019-02-25T10:24:46.225Z,21.16
2019-02-25T10:25:46.264Z,20.66
2019-02-25T10:26:46.303Z,20.54
2019-02-25T10:27:46.345Z,20.27
2019-02-25T10:28:46.378Z,20.29
2019-02-25T10:29:46.418Z,20.26
2019-02-25T10:30:52.601Z,20.71
2019-02-25T10:31:46.495Z,20.54
2019-02-25T10:32:46.535Z,20.54
2019-02-25T10:33:46.570Z,20.81
2019-02-25T10:34:46.614Z,21.46
2019-02-25T10:35:46.645Z,21.82
2019-02-25T10:36:48.139Z,22.31
2019-02-25T10:37:46.725Z,22.42
2019-02-25T10:38:46.804Z,22.39
2019-02-25T10:39:47.971Z,22.30
2019-02-25T10:40:47.525Z,22.45
2019-02-25T10:41:46.881Z,22.67
2019-02-25T10:42:46.914Z,22.60
2019-02-25T10:43:46.950Z,22.49
2019-02-25T10:44:46.989Z,22.41
2019-02-25T10:45:47.030Z,22.66
2019-02-25T10:46:49.079Z,22.73
2019-02-25T10:47:49.007Z,22.85
2019-02-25T10:48:47.981Z,22.75
2019-02-25T10:49:47.188Z,22.73
2019-02-25T10:50:55.734Z,22.61
2019-02-25T10:51:47.259Z,22.79
2019-02-25T10:52:49.370Z,23.19
2019-02-25T10:53:49.330Z,23.55
2019-02-25T10:54:47.872Z,23.26
2019-02-25T10:55:49.314Z,23.53
2019-02-25T10:56:49.378Z,23.10
2019-02-25T10:57:47.487Z,22.91
2019-02-25T10:58:47.529Z,23.09
2019-02-25T10:59:47.570Z,23.15
2019-02-25T11:00:47.607Z,23.42
2019-02-25T11:01:47.650Z,23.19
2019-02-25T11:02:49.517Z,23.37
2019-02-25T11:03:48.269Z,23.16
2019-02-25T11:04:49.263Z,22.99
2019-02-25T11:05:47.796Z,23.12
2019-02-25T11:06:47.842Z,23.59
2019-02-25T11:07:47.876Z,23.79
2019-02-25T11:08:48.115Z,23.79
2019-02-25T11:09:49.923Z,23.70
2019-02-25T11:10:48.676Z,23.79
2019-02-25T11:11:48.573Z,23.74
2019-02-25T11:12:48.069Z,23.89
2019-02-25T11:13:48.107Z,24.14
2019-02-25T11:14:48.147Z,24.30
2019-02-25T11:15:48.445Z,24.19
2019-02-25T11:16:50.063Z,24.46
2019-02-25T11:17:49.672Z,24.64
2019-02-25T11:18:50.058Z,25.11
2019-02-25T11:19:48.347Z,24.87
2019-02-25T11:20:48.390Z,24.44
2019-02-25T11:21:48.419Z,24.36
2019-02-25T11:22:48.602Z,24.59
2019-02-25T11:23:49.158Z,24.22
2019-02-25T11:24:49.812Z,24.48
2019-02-25T11:25:48.578Z,24.67
2019-02-25T11:26:48.619Z,24.40
2019-02-25T11:27:48.658Z,23.60
2019-02-25T11:28:48.696Z,23.32
2019-02-25T11:29:48.733Z,23.25
2019-02-25T11:30:49.822Z,23.48
2019-02-25T11:31:49.446Z,23.48
2019-02-25T11:32:50.701Z,24.03
2019-02-25T11:33:48.890Z,24.08
2019-02-25T11:34:48.932Z,24.08
2019-02-25T11:35:48.972Z,24.49
2019-02-25T11:36:50.853Z,24.69
2019-02-25T11:37:49.664Z,24.77
2019-02-25T11:38:49.087Z,24.26
2019-02-25T11:39:49.130Z,23.93
2019-02-25T11:40:49.168Z,24.03
2019-02-25T11:41:49.206Z,24.02
2019-02-25T11:42:49.255Z,24.17
2019-02-25T11:43:50.958Z,24.12
2019-02-25T11:44:49.331Z,24.67
2019-02-25T11:45:49.365Z,24.67
2019-02-25T11:46:49.402Z,24.40
2019-02-25T11:47:49.443Z,24.63
2019-02-25T11:48:49.491Z,24.58
2019-02-25T11:49:50.839Z,24.55
2019-02-25T11:50:49.563Z,24.71
2019-02-25T11:51:49.599Z,25.38
2019-02-25T11:52:49.647Z,25.57
2019-02-25T11:53:49.684Z,25.51
2019-02-25T11:54:49.715Z,25.48
2019-02-25T11:55:49.760Z,25.34
2019-02-25T11:56:49.794Z,24.93
2019-02-25T11:57:49.833Z,24.87
2019-02-25T11:58:49.871Z,25.07
2019-02-25T11:59:49.914Z,24.75
2019-02-25T12:00:49.951Z,24.55
2019-02-25T12:01:49.989Z,24.21
2019-02-25T12:02:50.030Z,24.22
2019-02-25T12:03:50.066Z,24.56
2019-02-25T12:04:50.106Z,24.77
2019-02-25T12:05:50.149Z,24.82
2019-02-25T12:06:50.190Z,24.93
2019-02-25T12:07:50.225Z,24.75
2019-02-25T12:08:50.270Z,24.70
2019-02-25T12:09:50.309Z,25.22
2019-02-25T12:10:50.341Z,25.42
2019-02-25T12:11:50.380Z,25.56
2019-02-25T12:12:50.424Z,25.27
2019-02-25T12:13:50.463Z,25.23
2019-02-25T12:14:50.499Z,25.51
2019-02-25T12:15:50.536Z,25.38
2019-02-25T12:16:50.581Z,25.51
2019-02-25T12:17:50.618Z,25.76
2019-02-25T12:18:50.663Z,25.63
2019-02-25T12:19:50.701Z,25.75
2019-02-25T12:20:50.732Z,25.78
2019-02-25T12:21:50.770Z,25.29
2019-02-25T12:22:50.809Z,24.78
2019-02-25T12:23:50.846Z,24.70
2019-02-25T12:24:50.888Z,23.84
2019-02-25T12:25:50.927Z,23.52
2019-02-25T12:26:50.962Z,23.97
2019-02-25T12:27:51.002Z,24.34
2019-02-25T12:28:51.039Z,24.83
2019-02-25T12:29:51.080Z,25.07
2019-02-25T12:30:51.124Z,25.11
2019-02-25T12:31:51.157Z,24.59
2019-02-25T12:32:51.195Z,24.48
2019-02-25T12:33:51.230Z,23.87
2019-02-25T12:34:51.270Z,23.92
2019-02-25T12:35:51.306Z,24.07
2019-02-25T12:36:52.768Z,24.24
2019-02-25T12:37:51.383Z,24.39
2019-02-25T12:38:51.421Z,24.12
2019-02-25T12:39:51.464Z,24.17
2019-02-25T12:40:51.493Z,24.37
2019-02-25T12:41:51.530Z,24.15
2019-02-25T12:42:51.575Z,24.34
2019-02-25T12:43:51.606Z,24.89
2019-02-25T12:44:51.655Z,25.11
2019-02-25T12:45:51.682Z,25.23
2019-02-25T12:46:51.723Z,25.23
2019-02-25T12:47:51.756Z,25.26
2019-02-25T12:48:51.794Z,25.22
2019-02-25T12:49:51.831Z,24.66
2019-02-25T12:50:51.879Z,24.04
2019-02-25T12:51:51.908Z,23.38
2019-02-25T12:52:51.950Z,22.94
2019-02-25T12:53:51.987Z,22.71
2019-02-25T12:54:52.025Z,22.69
2019-02-25T12:55:52.057Z,22.76
2019-02-25T12:56:52.096Z,22.94
2019-02-25T12:57:52.137Z,23.42
2019-02-25T12:58:52.167Z,23.97
2019-02-25T12:59:52.205Z,24.32
2019-02-25T13:00:52.242Z,24.45
2019-02-25T13:01:52.281Z,24.94
2019-02-25T13:02:52.323Z,25.04
2019-02-25T13:03:52.355Z,24.87
2019-02-25T13:04:52.393Z,24.63
2019-02-25T13:05:52.443Z,24.51
2019-02-25T13:06:52.471Z,24.61
2019-02-25T13:07:52.503Z,24.77
2019-02-25T13:08:52.541Z,24.39
2019-02-25T13:09:52.579Z,24.15
2019-02-25T13:10:52.614Z,24.51
2019-02-25T13:11:52.654Z,24.52
2019-02-25T13:12:52.689Z,24.49
2019-02-25T13:13:52.723Z,24.56
2019-02-25T13:14:52.762Z,24.21
2019-02-25T13:15:52.799Z,24.14